Mancos, CO (81328)

4:45 AM MDT on May 24, 2017 (GMT -0600)
CAVU | | Change Station
Active Advisory: Fire Weather Watch

Elev 7231 ft 37.37 °N, 108.29 °W | Updated 5 seconds ago

Clear
Clear
38.8 °F
Feels Like 39 °F
N
0.0
Wind Variable Wind from NNE
Gusts 0.0 mph

Today
High -- | Low -- °F
--% Chance of Precip.
Yesterday
High -- | Low -- °F
Precip. -- in
Pressure 29.93 in
Visibility 10.0 miles
Clouds Clear
Windchill 39 °F
Dew Point 30 °F
Humidity 70%
Rainfall 0.00 in
Snow Depth Not available.
5:57 AM 8:22 PM
Waning Crescent, 3% visible
METAR KCEZ 240953Z AUTO 07005KT 10SM CLR 05/01 A3009 RMK AO2 SLP135 T00500011
Pressure 29.93 in
Visibility 10.0 miles
Clouds Clear
Windchill 39 °F
Dew Point 30 °F
Humidity 70%
Rainfall 0.00 in
Snow Depth Not available.
5:57 AM 8:22 PM
Waning Crescent, 3% visible
METAR KCEZ 240953Z AUTO 07005KT 10SM CLR 05/01 A3009 RMK AO2 SLP135 T00500011

Get Your Daily Forecast Email!

Thanks for signing up!

Be on the lookout for a verification email in your inbox.

You'll start receiving severe weather alerts in your inbox..

×

10-Day Weather Forecast

Almanac

Astronomy

May. 24, 2017 Rise Set
Actual Time
Civil Twilight
Nautical Twilight
Astronomical Twilight
Moon
Length of Visible Light
Length of Day
Tomorrow will be .
, % of the Moon is Illuminated

Today's Extremes

State Highs State Lows

Community

WunderPhotos

Category 6

Welcome to Category 6. This is the collective home for Weather Underground's featured writeups by Dr. Jeff Masters (right), Bob Henson (left), Chris Burt, and other regular contributors.

Nearby

Air Quality

  Air Quality AQ Index Pollutant
Not available.

Snow Depth

Station Depth Elevation

Earthquake Activity

City Distance Mag. Time & Date
Minimum magnitude displayed is 2.5.

Coastal Water Temperatures

Place Temperature

Stations

Nearby Weather Stations

Station Location Temp. Windchill Dew Point Humidity Wind Precip. Elev Updated Type
                   

Watches & Warnings

Fire Weather Watch
Issued: 10:46 PM MDT May. 23, 2017 – National Weather Service

... Fire Weather Watch remains in effect from Thursday afternoon
through Thursday evening for gusty winds... low humidity... and dry
fuels including fire weather zone 207...

* affected area... in Colorado, fire weather zone 207 southwest
Colorado lower forecast area.

* Winds... west 15 to 20 mph with gusts up to 35 mph.

* Relative humidity... 12 to 17 percent.

* Impacts... fire starts or existing fires may become difficult
to control.

Precautionary/preparedness actions...

A Fire Weather Watch means that critical fire weather conditions
are forecast to occur. Listen for later forecasts and possible
red flag warnings.